Time;durP1;ratioP1;P1;durP2;ratioP2;P2;SDS_P1;SDS_P2;PMS_P1;PMS_P2;Temp;Humidity;BMP_temperature;BMP_pressure;BME280_temperature;BME280_humidity;BME280_pressure;Samples;Min_cycle;Max_cycle;Signal;HPM_P1;HPM_P2
2024/03/04 00:00:38;;;;;;;44.97;35.20;;;;;;;10.08;100.00;100664.47;7693882;23;20231;-68
2024/03/04 00:04:00;;;;;;;44.60;36.23;;;;;;;10.10;100.00;100660.69;7700928;23;20246;-67
2024/03/04 00:07:21;;;;;;;47.57;35.87;;;;;;;10.12;100.00;100665.91;7675508;23;20211;-68
2024/03/04 00:10:45;;;;;;;45.63;34.53;;;;;;;10.04;100.00;100666.59;7683939;23;20555;-68
2024/03/04 00:14:07;;;;;;;49.23;36.17;;;;;;;10.00;100.00;100673.25;7701075;23;20212;-68
2024/03/04 00:17:29;;;;;;;42.23;35.83;;;;;;;9.92;100.00;100675.78;7690040;23;20211;-67
2024/03/04 00:20:53;;;;;;;43.77;35.17;;;;;;;9.89;100.00;100681.41;7694901;23;20554;-68
2024/03/04 00:24:14;;;;;;;45.00;36.23;;;;;;;9.97;100.00;100680.75;7698476;23;20578;-67
2024/03/04 00:27:35;;;;;;;47.03;35.97;;;;;;;9.87;100.00;100680.72;7693889;23;20248;-68
2024/03/04 00:30:56;;;;;;;50.37;35.37;;;;;;;9.98;100.00;100691.38;7688611;23;20290;-67
2024/03/04 00:34:17;;;;;;;46.80;36.53;;;;;;;9.92;100.00;100683.84;7698018;23;20234;-68
2024/03/04 00:37:41;;;;;;;45.30;34.13;;;;;;;9.92;100.00;100686.53;7690721;23;20239;-68
2024/03/04 00:41:01;;;;;;;44.33;34.27;;;;;;;10.02;100.00;100686.56;7692208;23;20318;-68
2024/03/04 00:44:22;;;;;;;46.03;35.47;;;;;;;10.00;100.00;100684.00;7700791;23;20516;-68
2024/03/04 00:47:44;;;;;;;45.30;34.53;;;;;;;9.97;100.00;100686.97;7689610;23;20572;-68
2024/03/04 00:51:05;;;;;;;49.37;36.27;;;;;;;9.95;100.00;100690.81;7691539;23;20220;-68
2024/03/04 00:54:28;;;;;;;43.27;35.63;;;;;;;9.92;100.00;100689.25;7699852;23;20546;-68
2024/03/04 00:57:49;;;;;;;44.90;34.43;;;;;;;9.95;100.00;100696.19;7682294;23;20216;-69
2024/03/04 01:01:10;;;;;;;44.17;32.97;;;;;;;9.88;100.00;100705.78;7682215;23;20235;-68
2024/03/04 01:04:31;;;;;;;47.47;37.13;;;;;;;9.87;100.00;100707.63;7701655;23;20891;-68
2024/03/04 01:07:52;;;;;;;41.47;36.80;;;;;;;9.87;100.00;100704.06;7693491;23;20216;-68
2024/03/04 01:11:14;;;;;;;45.57;35.30;;;;;;;9.82;100.00;100698.25;7692847;23;20220;-68
2024/03/04 01:14:37;;;;;;;49.57;37.97;;;;;;;9.80;100.00;100697.56;7702499;23;20211;-67
2024/03/04 01:17:58;;;;;;;37.90;33.87;;;;;;;9.82;100.00;100699.13;7692728;23;20223;-68
2024/03/04 01:21:20;;;;;;;50.27;37.60;;;;;;;9.81;100.00;100693.84;7692247;23;20219;-68
2024/03/04 01:24:40;;;;;;;48.07;35.77;;;;;;;9.78;100.00;100707.59;7694408;23;20208;-68
2024/03/04 01:28:03;;;;;;;49.40;37.37;;;;;;;9.70;100.00;100693.97;7694788;23;20227;-68
2024/03/04 01:31:23;;;;;;;43.80;36.73;;;;;;;9.69;100.00;100701.19;7693766;23;20215;-67
2024/03/04 01:34:44;;;;;;;41.10;35.30;;;;;;;9.63;100.00;100705.28;7698759;23;20212;-68
2024/03/04 01:38:05;;;;;;;45.17;34.70;;;;;;;9.60;100.00;100702.84;7685819;23;20515;-67
2024/03/04 01:41:27;;;;;;;42.13;34.43;;;;;;;9.52;100.00;100707.19;7695016;23;20294;-67
2024/03/04 01:44:49;;;;;;;43.50;34.80;;;;;;;9.56;100.00;100705.94;7703806;23;20459;-67
2024/03/04 01:48:11;;;;;;;43.63;36.00;;;;;;;9.63;100.00;100704.41;7692474;23;20628;-67
2024/03/04 01:51:33;;;;;;;48.13;33.63;;;;;;;9.56;100.00;100714.88;7695411;23;20504;-68
2024/03/04 01:54:56;;;;;;;41.60;33.00;;;;;;;9.50;100.00;100707.31;7700433;23;20285;-67
2024/03/04 01:58:19;;;;;;;47.67;33.70;;;;;;;9.51;100.00;100710.88;7700311;23;20669;-69
2024/03/04 02:01:42;;;;;;;44.33;35.80;;;;;;;9.56;100.00;100722.94;7684948;23;20215;-69
2024/03/04 02:05:08;;;;;;;42.77;35.83;;;;;;;9.58;100.00;100718.28;7702241;23;20216;-67
2024/03/04 02:08:29;;;;;;;42.03;35.00;;;;;;;9.53;100.00;100712.44;7699499;23;20211;-68
2024/03/04 02:11:50;;;;;;;41.87;34.93;;;;;;;9.50;100.00;100720.78;7691412;23;20633;-68
2024/03/04 02:15:12;;;;;;;46.77;37.10;;;;;;;9.53;100.00;100719.66;7694669;23;20558;-68
2024/03/04 02:18:35;;;;;;;46.60;35.87;;;;;;;9.56;100.00;100722.94;7695855;23;20220;-68
2024/03/04 02:22:00;;;;;;;39.80;32.13;;;;;;;9.54;100.00;100716.84;7687838;23;20219;-68
2024/03/04 02:25:23;;;;;;;39.90;35.33;;;;;;;9.51;100.00;100725.16;7689039;23;20314;-68
2024/03/04 02:28:44;;;;;;;43.47;34.13;;;;;;;9.51;100.00;100727.03;7699020;23;20239;-68
2024/03/04 02:32:06;;;;;;;37.77;33.37;;;;;;;9.56;100.00;100714.00;7684857;23;20219;-68
2024/03/04 02:35:29;;;;;;;41.67;32.77;;;;;;;9.58;100.00;100734.41;7691305;23;20302;-68
2024/03/04 02:38:50;;;;;;;39.53;32.33;;;;;;;9.52;100.00;100726.88;7697758;23;20211;-68
2024/03/04 02:42:12;;;;;;;47.90;35.17;;;;;;;9.51;100.00;100732.41;7670484;23;20207;-67
2024/03/04 02:45:34;;;;;;;40.37;33.97;;;;;;;9.56;100.00;100740.91;7681838;23;20208;-68
2024/03/04 02:48:55;;;;;;;39.07;33.17;;;;;;;9.53;100.00;100736.66;7697666;23;20492;-68
2024/03/04 02:52:16;;;;;;;46.70;34.47;;;;;;;9.48;100.00;100738.91;7651349;23;20228;-68
2024/03/04 02:55:37;;;;;;;40.67;34.93;;;;;;;9.48;100.00;100736.22;7689872;23;20207;-67
2024/03/04 02:58:59;;;;;;;46.13;36.03;;;;;;;9.45;100.00;100728.38;7700986;23;20770;-67
2024/03/04 03:02:20;;;;;;;38.07;32.13;;;;;;;9.45;100.00;100733.78;7668477;23;20227;-69
2024/03/04 03:05:41;;;;;;;39.53;32.37;;;;;;;9.42;100.00;100742.13;7689888;23;20211;-68
2024/03/04 03:09:04;;;;;;;37.43;30.97;;;;;;;9.39;100.00;100741.50;7699227;23;20217;-68
2024/03/04 03:12:25;;;;;;;40.47;32.93;;;;;;;9.39;100.00;100733.44;7678856;23;20215;-68
2024/03/04 03:15:48;;;;;;;40.37;34.87;;;;;;;9.44;100.00;100741.97;7680142;23;20299;-68
2024/03/04 03:19:19;;;;;;;39.80;32.00;;;;;;;9.41;100.00;100726.94;7698568;23;20233;-68
2024/03/04 03:22:40;;;;;;;40.47;32.00;;;;;;;9.37;100.00;100736.28;7692089;23;20637;-69
2024/03/04 03:26:01;;;;;;;43.50;32.53;;;;;;;9.39;100.00;100738.81;7694947;23;20599;-67
2024/03/04 03:29:22;;;;;;;42.27;35.63;;;;;;;9.40;100.00;100744.09;7703202;23;20207;-67
2024/03/04 03:32:45;;;;;;;41.07;32.87;;;;;;;9.41;100.00;100742.22;7692028;23;20934;-68
2024/03/04 03:36:07;;;;;;;40.37;33.10;;;;;;;9.44;100.00;100740.16;7692383;23;20208;-68
2024/03/04 03:39:30;;;;;;;35.50;31.00;;;;;;;9.42;100.00;100741.25;7703542;23;20224;-68
2024/03/04 03:42:51;;;;;;;41.33;32.33;;;;;;;9.34;100.00;100752.69;7680734;23;20216;-67
2024/03/04 03:46:12;;;;;;;38.80;31.33;;;;;;;9.20;100.00;100749.47;7683771;23;20208;-68
2024/03/04 03:49:35;;;;;;;37.50;30.83;;;;;;;8.98;100.00;100744.19;7700485;23;20518;-69
2024/03/04 03:52:55;;;;;;;40.87;31.83;;;;;;;8.90;100.00;100755.59;7696264;23;20219;-67
2024/03/04 03:56:17;;;;;;;38.07;31.93;;;;;;;8.88;100.00;100762.06;7694035;23;20523;-68
2024/03/04 03:59:38;;;;;;;38.07;30.73;;;;;;;8.86;100.00;100767.59;7705915;23;20215;-67
2024/03/04 04:03:00;;;;;;;40.90;32.33;;;;;;;8.77;100.00;100765.66;7684125;23;20866;-68
2024/03/04 04:06:22;;;;;;;42.07;35.50;;;;;;;8.71;100.00;100776.91;7692565;23;20537;-68
2024/03/04 04:09:43;;;;;;;37.40;30.53;;;;;;;8.73;100.00;100783.88;7688554;23;20211;-68
2024/03/04 04:13:04;;;;;;;39.47;31.27;;;;;;;8.71;100.00;100795.72;7693665;23;20237;-69
2024/03/04 04:16:28;;;;;;;39.80;30.43;;;;;;;8.64;100.00;100797.19;7686828;23;20212;-68
2024/03/04 04:19:49;;;;;;;33.27;27.90;;;;;;;8.65;100.00;100799.78;7701068;23;20207;-68
2024/03/04 04:23:11;;;;;;;37.83;30.77;;;;;;;8.64;100.00;100802.56;7694238;23;20574;-68
2024/03/04 04:26:33;;;;;;;42.23;31.77;;;;;;;8.60;100.00;100803.81;7693180;23;20314;-69
2024/03/04 04:29:54;;;;;;;35.70;31.23;;;;;;;8.55;100.00;100804.19;7700040;23;20280;-69
2024/03/04 04:33:16;;;;;;;36.03;30.40;;;;;;;8.51;100.00;100812.63;7648352;23;20215;-69
2024/03/04 04:36:37;;;;;;;35.23;29.40;;;;;;;8.49;100.00;100807.38;7689874;23;20212;-68
2024/03/04 04:39:59;;;;;;;41.47;33.60;;;;;;;8.48;100.00;100803.00;7691619;23;20212;-68
2024/03/04 04:43:20;;;;;;;39.70;30.97;;;;;;;8.49;100.00;100809.22;7684473;23;20530;-67
2024/03/04 04:46:41;;;;;;;38.00;30.73;;;;;;;8.40;100.00;100820.69;7684825;23;20208;-69
2024/03/04 04:50:03;;;;;;;34.37;30.17;;;;;;;8.35;100.00;100821.06;7697363;23;20216;-69
2024/03/04 04:53:24;;;;;;;41.13;31.47;;;;;;;8.39;100.00;100827.03;7698397;23;20215;-68
2024/03/04 04:56:48;;;;;;;36.40;30.23;;;;;;;8.32;100.00;100839.28;7693736;23;20208;-68
2024/03/04 05:00:12;;;;;;;47.70;39.83;;;;;;;8.31;100.00;100846.47;7694819;23;20215;-68
2024/03/04 05:03:32;;;;;;;54.07;45.83;;;;;;;8.29;100.00;100839.50;7695367;23;20219;-67
2024/03/04 05:06:54;;;;;;;53.20;45.23;;;;;;;8.30;100.00;100838.53;7690376;23;20219;-68
2024/03/04 05:10:15;;;;;;;65.77;51.30;;;;;;;8.36;100.00;100844.28;7691508;23;20452;-68
2024/03/04 05:13:37;;;;;;;41.80;35.63;;;;;;;8.32;100.00;100850.00;7701072;23;20264;-69
2024/03/04 05:16:59;;;;;;;37.33;31.57;;;;;;;8.38;100.00;100849.53;7678912;23;20427;-68
2024/03/04 05:20:21;;;;;;;33.80;30.13;;;;;;;8.43;100.00;100844.63;7689890;23;20256;-67
2024/03/04 05:23:42;;;;;;;35.40;31.27;;;;;;;8.47;100.00;100854.16;7700663;23;20215;-68
2024/03/04 05:27:02;;;;;;;64.47;51.00;;;;;;;8.51;100.00;100855.63;7691792;23;20211;-69
2024/03/04 05:30:29;;;;;;;45.90;35.67;;;;;;;8.46;100.00;100858.69;7684283;23;20215;-67
2024/03/04 05:33:49;;;;;;;75.30;67.03;;;;;;;8.44;100.00;100870.50;7696649;23;20220;-69
2024/03/04 05:37:11;;;;;;;44.73;35.73;;;;;;;8.38;100.00;100869.19;7691545;23;20286;-68
2024/03/04 05:40:32;;;;;;;46.77;41.30;;;;;;;8.33;100.00;100874.06;7684793;23;20208;-68
2024/03/04 05:43:53;;;;;;;37.17;30.83;;;;;;;8.26;100.00;100880.03;7700932;23;20226;-68
2024/03/04 05:47:15;;;;;;;35.37;28.73;;;;;;;8.21;100.00;100876.81;7686783;23;20212;-67
2024/03/04 05:50:37;;;;;;;38.27;29.97;;;;;;;8.20;100.00;100892.06;7686716;23;20577;-68
2024/03/04 05:53:58;;;;;;;38.03;29.77;;;;;;;8.12;100.00;100890.97;7696699;23;20958;-68
2024/03/04 05:57:19;;;;;;;36.13;31.47;;;;;;;8.19;100.00;100889.53;7673812;23;20290;-69
2024/03/04 06:00:40;;;;;;;38.73;30.80;;;;;;;8.16;100.00;100898.66;7686844;23;20249;-67
2024/03/04 06:04:02;;;;;;;41.97;30.27;;;;;;;8.15;100.00;100898.78;7699264;23;20271;-68
2024/03/04 06:07:23;;;;;;;38.07;31.73;;;;;;;8.25;100.00;100905.13;7671183;23;20207;-67
2024/03/04 06:10:44;;;;;;;41.97;31.30;;;;;;;8.27;100.00;100909.47;7693641;23;20464;-69
2024/03/04 06:14:05;;;;;;;38.07;31.20;;;;;;;8.26;100.00;100923.00;7702597;23;20219;-70
2024/03/04 06:17:26;;;;;;;34.70;27.67;;;;;;;8.26;100.00;100917.63;7671368;23;20213;-67
2024/03/04 06:20:49;;;;;;;38.97;30.57;;;;;;;8.30;100.00;100919.97;7688188;23;20219;-67
2024/03/04 06:24:10;;;;;;;35.43;25.20;;;;;;;8.74;100.00;100927.19;7698020;23;20481;-68
2024/03/04 06:27:30;;;;;;;35.47;30.43;;;;;;;9.27;100.00;100930.84;7697020;23;20457;-65
2024/03/04 06:30:51;;;;;;;37.40;30.13;;;;;;;9.87;100.00;100939.19;7688801;23;20463;-66
2024/03/04 06:34:12;;;;;;;36.73;27.83;;;;;;;10.02;100.00;100940.56;7697652;23;20216;-67
2024/03/04 06:37:34;;;;;;;39.13;29.03;;;;;;;10.15;100.00;100943.97;7692316;23;20546;-67
2024/03/04 06:40:56;;;;;;;41.93;30.20;;;;;;;10.59;100.00;100933.84;7694132;23;20212;-67
2024/03/04 06:44:17;;;;;;;35.63;28.47;;;;;;;10.66;100.00;100945.81;7700533;23;20215;-68
2024/03/04 06:47:38;;;;;;;43.63;32.97;;;;;;;10.16;100.00;100942.97;7690609;23;20212;-68
2024/03/04 06:50:59;;;;;;;41.67;33.20;;;;;;;9.84;100.00;100938.59;7691245;23;20212;-66
2024/03/04 06:54:21;;;;;;;79.10;61.37;;;;;;;9.78;100.00;100953.44;7698692;23;20247;-69
2024/03/04 06:57:42;;;;;;;44.63;36.27;;;;;;;9.28;100.00;100952.25;7690887;23;20215;-69
2024/03/04 07:01:03;;;;;;;43.47;32.07;;;;;;;9.01;100.00;100959.03;7686076;23;20269;-67
2024/03/04 07:04:24;;;;;;;42.07;32.67;;;;;;;8.76;100.00;100968.22;7700079;23;20216;-69
2024/03/04 07:07:45;;;;;;;43.13;34.03;;;;;;;8.69;100.00;100967.84;7674259;23;20439;-66
2024/03/04 07:11:09;;;;;;;43.80;32.73;;;;;;;8.65;100.00;100963.72;7690333;23;20574;-69
2024/03/04 07:14:30;;;;;;;37.27;31.03;;;;;;;8.66;100.00;100954.66;7700756;23;20224;-69
2024/03/04 07:17:51;;;;;;;43.33;33.67;;;;;;;8.57;100.00;100968.81;7688948;23;20220;-68
2024/03/04 07:21:15;;;;;;;46.13;34.00;;;;;;;8.61;100.00;100962.25;7691332;23;20219;-68
2024/03/04 07:24:35;;;;;;;43.67;34.33;;;;;;;8.66;100.00;100960.03;7701362;23;20554;-69
2024/03/04 07:27:58;;;;;;;50.30;34.87;;;;;;;8.72;100.00;100958.66;7693245;23;20617;-70
2024/03/04 07:31:20;;;;;;;42.53;34.13;;;;;;;8.91;100.00;100958.06;7690948;23;20338;-67
2024/03/04 07:34:41;;;;;;;40.33;30.73;;;;;;;8.73;100.00;100960.41;7697816;23;20220;-68
2024/03/04 07:38:02;;;;;;;36.43;31.47;;;;;;;8.93;100.00;100969.56;7693529;23;20449;-69
2024/03/04 07:41:24;;;;;;;41.03;32.17;;;;;;;9.09;100.00;100972.72;7695028;23;20215;-67
2024/03/04 07:44:46;;;;;;;43.07;32.13;;;;;;;9.15;100.00;100975.75;7697833;23;20215;-67
2024/03/04 07:48:07;;;;;;;41.83;33.33;;;;;;;9.14;100.00;100971.34;7696914;23;20283;-68
2024/03/04 07:51:28;;;;;;;43.83;34.17;;;;;;;9.09;100.00;100976.28;7691037;23;20216;-68
2024/03/04 07:54:49;;;;;;;38.30;31.80;;;;;;;9.16;100.00;100977.47;7703145;23;20465;-67
2024/03/04 07:58:10;;;;;;;43.00;32.33;;;;;;;9.18;100.00;100988.94;7705654;23;20239;-66
2024/03/04 08:01:32;;;;;;;40.83;33.37;;;;;;;9.30;100.00;101000.56;7690627;23;20212;-66
2024/03/04 08:04:53;;;;;;;39.17;31.80;;;;;;;9.36;100.00;100995.53;7700573;23;20219;-66
2024/03/04 08:08:14;;;;;;;62.00;50.33;;;;;;;9.50;100.00;101003.31;7699182;23;20212;-66
2024/03/04 08:11:35;;;;;;;55.07;43.67;;;;;;;9.57;100.00;100996.44;7694191;23;20414;-67
2024/03/04 08:14:56;;;;;;;40.87;32.50;;;;;;;9.56;100.00;100994.75;7701822;23;20626;-69
2024/03/04 08:18:19;;;;;;;38.20;33.80;;;;;;;9.42;100.00;101003.09;7678905;23;21060;-69
2024/03/04 08:21:42;;;;;;;41.53;31.57;;;;;;;9.44;100.00;101000.28;7696827;23;20462;-69
2024/03/04 08:25:04;;;;;;;38.77;32.50;;;;;;;9.56;100.00;100997.44;7703199;23;20216;-66
2024/03/04 08:28:25;;;;;;;40.27;31.63;;;;;;;9.63;100.00;101016.63;7704824;23;20211;-67
2024/03/04 08:31:47;;;;;;;40.90;32.17;;;;;;;9.51;100.00;101026.53;7685787;23;20613;-67
2024/03/04 08:35:10;;;;;;;43.30;34.27;;;;;;;9.39;100.00;101026.69;7676957;23;20298;-67
2024/03/04 08:38:31;;;;;;;40.07;30.57;;;;;;;9.43;100.00;101026.31;7697873;23;20220;-66
2024/03/04 08:41:51;;;;;;;35.53;30.97;;;;;;;9.42;100.00;101030.00;7696302;23;20575;-66
2024/03/04 08:45:12;;;;;;;38.77;31.37;;;;;;;9.67;100.00;101026.16;7697086;23;20220;-67
2024/03/04 08:48:33;;;;;;;44.27;33.30;;;;;;;9.94;100.00;101041.84;7698235;23;20842;-69
2024/03/04 08:51:56;;;;;;;41.93;34.63;;;;;;;9.84;100.00;101035.53;7696325;23;20219;-67
2024/03/04 08:55:17;;;;;;;42.00;33.00;;;;;;;9.89;100.00;101044.91;7691871;23;20216;-68
2024/03/04 08:58:38;;;;;;;41.23;33.70;;;;;;;9.86;100.00;101049.72;7701370;23;20216;-67
2024/03/04 09:01:58;;;;;;;42.50;32.90;;;;;;;9.70;100.00;101044.72;7686684;23;20215;-67
2024/03/04 09:05:21;;;;;;;40.17;32.03;;;;;;;9.85;100.00;101040.78;7694505;23;20211;-66
2024/03/04 09:08:43;;;;;;;34.60;28.73;;;;;;;9.99;100.00;101045.03;7702723;23;20220;-67
2024/03/04 09:12:05;;;;;;;37.23;30.87;;;;;;;9.95;100.00;101044.41;7696198;23;20295;-66
2024/03/04 09:15:26;;;;;;;37.67;32.07;;;;;;;9.93;100.00;101042.84;7691776;23;20586;-66
2024/03/04 09:18:47;;;;;;;46.87;32.37;;;;;;;10.17;100.00;101041.66;7700235;23;20258;-67
2024/03/04 09:22:08;;;;;;;47.27;32.87;;;;;;;10.34;100.00;101053.72;7692482;23;20533;-67
2024/03/04 09:25:31;;;;;;;40.63;30.73;;;;;;;9.88;100.00;101045.91;7696415;23;20563;-67
2024/03/04 09:28:52;;;;;;;40.13;31.33;;;;;;;9.96;100.00;101047.97;7705662;23;20216;-67
2024/03/04 09:32:13;;;;;;;39.77;33.13;;;;;;;9.98;100.00;101048.69;7688091;23;20318;-69
2024/03/04 09:35:34;;;;;;;40.77;33.93;;;;;;;9.95;100.00;101054.34;7691548;23;20215;-68
2024/03/04 09:38:55;;;;;;;44.87;33.57;;;;;;;10.03;100.00;101057.25;7702522;23;20218;-68
2024/03/04 09:42:18;;;;;;;35.43;29.47;;;;;;;10.21;100.00;101055.72;7694229;23;20244;-68
2024/03/04 09:45:41;;;;;;;39.03;31.40;;;;;;;9.90;100.00;101064.63;7683068;23;20207;-67
2024/03/04 09:49:03;;;;;;;39.77;30.90;;;;;;;9.97;100.00;101063.97;7692915;23;20215;-67
2024/03/04 09:52:27;;;;;;;41.73;32.87;;;;;;;10.22;100.00;101060.97;7692891;23;20211;-67
2024/03/04 09:55:47;;;;;;;40.77;31.50;;;;;;;10.34;100.00;101070.75;7697623;23;20216;-67
2024/03/04 09:59:10;;;;;;;39.30;32.93;;;;;;;10.18;100.00;101077.56;7702159;23;20216;-68
2024/03/04 10:02:31;;;;;;;43.00;33.20;;;;;;;9.82;100.00;101083.25;7690118;23;20216;-68
2024/03/04 10:05:53;;;;;;;41.13;34.53;;;;;;;10.13;100.00;101086.00;7691720;23;20457;-65
2024/03/04 10:09:14;;;;;;;44.73;37.17;;;;;;;10.55;100.00;101086.94;7702446;23;20215;-67
2024/03/04 10:12:36;;;;;;;42.73;33.93;;;;;;;10.38;100.00;101079.41;7694722;23;20220;-67
2024/03/04 10:15:59;;;;;;;40.57;32.40;;;;;;;10.40;100.00;101088.22;7689001;23;20539;-67
2024/03/04 10:19:20;;;;;;;44.90;34.23;;;;;;;10.33;100.00;101077.09;7700909;23;20211;-67
2024/03/04 10:22:42;;;;;;;36.30;30.03;;;;;;;10.37;100.00;101077.69;7692607;23;20211;-67
2024/03/04 10:26:07;;;;;;;45.07;34.17;;;;;;;10.45;100.00;101080.63;7694834;23;20251;-66
2024/03/04 10:29:28;;;;;;;41.37;34.03;;;;;;;10.63;100.00;101079.03;7705150;23;20219;-68
2024/03/04 10:32:52;;;;;;;40.97;33.13;;;;;;;11.03;100.00;101082.69;7685439;23;20538;-67
2024/03/04 10:36:13;;;;;;;42.57;35.63;;;;;;;10.85;100.00;101084.28;7693166;23;20215;-68
2024/03/04 10:39:37;;;;;;;40.77;33.73;;;;;;;10.98;100.00;101078.66;7698448;23;20824;-68
2024/03/04 10:42:59;;;;;;;40.13;32.97;;;;;;;10.99;100.00;101078.53;7694066;23;20216;-67
2024/03/04 10:46:21;;;;;;;43.83;34.63;;;;;;;11.04;100.00;101073.59;7687106;23;20464;-68
2024/03/04 10:49:44;;;;;;;46.70;34.13;;;;;;;11.19;100.00;101082.19;7702369;23;20290;-68
2024/03/04 10:53:05;;;;;;;41.07;35.37;;;;;;;11.22;100.00;101082.75;7698525;23;20216;-68
2024/03/04 10:56:29;;;;;;;39.97;34.43;;;;;;;11.44;100.00;101079.03;7694217;23;20276;-67
2024/03/04 10:59:54;;;;;;;48.47;36.40;;;;;;;11.84;100.00;101077.19;7702610;23;20215;-68
2024/03/04 11:03:22;;;;;;;37.10;32.27;;;;;;;12.16;100.00;101062.56;7700373;23;20215;-68
2024/03/04 11:06:45;;;;;;;45.13;35.97;;;;;;;12.16;100.00;101066.09;7693019;23;20236;-66
2024/03/04 11:10:20;;;;;;;43.67;33.73;;;;;;;14.12;100.00;101056.91;7697059;23;20318;-66
2024/03/04 11:13:47;;;;;;;38.90;31.07;;;;;;;15.49;100.00;101052.50;7703600;23;20211;-67
2024/03/04 11:17:19;;;;;;;43.00;34.47;;;;;;;15.36;100.00;101042.03;7688629;23;20547;-67
2024/03/04 11:20:46;;;;;;;38.00;30.83;;;;;;;16.56;100.00;101040.69;7690057;23;20444;-67
2024/03/04 11:24:09;;;;;;;41.37;32.43;;;;;;;15.99;100.00;101050.63;7703285;23;20224;-67
2024/03/04 11:27:32;;;;;;;39.37;33.50;;;;;;;16.13;100.00;101047.25;7694785;23;20211;-66
2024/03/04 11:30:54;;;;;;;43.37;35.50;;;;;;;16.94;100.00;101055.47;7688927;23;20223;-68
2024/03/04 11:34:15;;;;;;;40.20;34.20;;;;;;;16.57;100.00;101058.69;7695266;23;20220;-67
2024/03/04 11:37:49;;;;;;;48.15;38.70;;;;;;;19.34;100.00;101049.50;7691531;23;20240;-66
2024/03/04 11:41:13;;;;;;;43.15;33.13;;;;;;;21.69;100.00;101045.50;7693873;23;20211;-68
2024/03/04 11:44:33;;;;;;;37.25;32.40;;;;;;;24.12;84.45;101041.69;7696465;23;20208;-68
2024/03/04 11:47:57;;;;;;;34.42;30.42;;;;;;;23.62;75.57;101045.25;7681181;23;20215;-69
2024/03/04 11:51:46;;;;;;;38.80;32.85;;;;;;;22.34;74.93;101046.78;7691377;23;20215;-69
2024/03/04 11:55:09;;;;;;;35.65;30.70;;;;;;;20.40;84.45;101060.75;7694137;23;20215;-69
2024/03/04 11:58:32;;;;;;;33.95;28.80;;;;;;;18.79;95.24;101055.34;7697640;23;20212;-67
2024/03/04 12:01:54;;;;;;;38.28;30.90;;;;;;;18.81;99.40;101058.75;7672988;23;20216;-68
2024/03/04 12:05:15;;;;;;;38.85;32.50;;;;;;;18.22;100.00;101063.13;7696840;23;20287;-68
2024/03/04 12:08:36;;;;;;;36.05;29.80;;;;;;;22.19;88.43;101052.47;7703132;23;20217;-67
2024/03/04 12:11:57;;;;;;;34.80;29.40;;;;;;;23.53;76.37;101052.09;7697117;23;20458;-67
2024/03/04 12:15:20;;;;;;;31.85;27.90;;;;;;;23.79;71.08;101054.75;7694246;23;20211;-66
2024/03/04 12:18:41;;;;;;;32.58;29.17;;;;;;;24.05;67.28;101046.41;7697778;23;20478;-68
2024/03/04 12:22:03;;;;;;;29.23;26.10;;;;;;;24.20;64.42;101048.88;7685165;23;20865;-68
2024/03/04 12:25:25;;;;;;;31.58;28.17;;;;;;;25.00;61.19;101039.78;7677492;23;20216;-68
2024/03/04 12:28:57;;;;;;;29.42;26.30;;;;;;;24.56;60.38;101036.09;7702852;23;20249;-68
2024/03/04 12:32:19;;;;;;;29.40;26.30;;;;;;;23.49;62.91;101026.88;7693234;23;20219;-69
2024/03/04 12:35:43;;;;;;;29.63;26.52;;;;;;;24.94;59.61;101027.75;7696264;23;20227;-66
2024/03/04 12:39:04;;;;;;;30.83;25.95;;;;;;;24.61;58.86;101027.97;7700859;23;20599;-68
2024/03/04 12:42:25;;;;;;;30.38;27.02;;;;;;;25.68;56.06;101024.03;7696386;23;20239;-69
2024/03/04 12:45:46;;;;;;;28.67;25.58;;;;;;;25.17;55.11;101030.72;7692318;23;20235;-69
2024/03/04 12:49:08;;;;;;;28.25;24.00;;;;;;;26.35;51.49;101018.22;7701863;23;20438;-69
2024/03/04 12:52:29;;;;;;;28.50;25.40;;;;;;;27.09;49.35;101017.66;7690179;23;20262;-67
2024/03/04 12:55:50;;;;;;;28.40;25.40;;;;;;;25.67;49.40;101031.47;7693037;23;20224;-69
2024/03/04 12:59:11;;;;;;;27.98;25.10;;;;;;;25.07;52.56;101038.69;7702648;23;20589;-71
2024/03/04 13:02:32;;;;;;;26.40;23.77;;;;;;;26.36;51.82;101031.00;7682312;23;20216;-68
2024/03/04 13:05:54;;;;;;;27.70;24.83;;;;;;;24.95;54.51;101034.13;7688056;23;20266;-71
2024/03/04 13:09:17;;;;;;;26.35;23.63;;;;;;;22.80;64.23;101029.28;7704023;23;20212;-72
2024/03/04 13:12:39;;;;;;;25.90;23.10;;;;;;;23.35;63.12;101030.75;7690638;23;20208;-68
2024/03/04 13:16:00;;;;;;;27.48;24.40;;;;;;;23.72;61.88;101029.97;7691599;23;20224;-69
2024/03/04 13:19:21;;;;;;;24.80;22.20;;;;;;;24.70;59.76;101027.75;7701895;23;20531;-72
2024/03/04 13:22:45;;;;;;;27.13;23.73;;;;;;;24.37;57.38;101026.06;7694690;23;20215;-70
2024/03/04 13:26:05;;;;;;;27.20;24.58;;;;;;;23.17;63.13;101021.44;7695619;23;20216;-70
2024/03/04 13:29:27;;;;;;;26.13;22.95;;;;;;;23.01;65.52;101015.31;7705107;23;20216;-70
2024/03/04 13:32:50;;;;;;;25.92;23.13;;;;;;;23.20;63.44;101012.78;7686137;23;20609;-69
2024/03/04 13:36:11;;;;;;;24.45;21.58;;;;;;;23.06;65.31;101017.44;7693515;23;20215;-72
2024/03/04 13:39:33;;;;;;;23.42;20.92;;;;;;;23.65;62.34;101007.16;7702710;23;20466;-69
2024/03/04 13:42:54;;;;;;;22.42;20.33;;;;;;;23.59;60.13;101005.25;7694471;23;20273;-68
2024/03/04 13:46:15;;;;;;;22.08;19.77;;;;;;;24.65;56.71;101002.72;7692922;23;20211;-67
2024/03/04 13:49:36;;;;;;;22.92;20.75;;;;;;;25.00;54.79;101004.78;7701399;23;20227;-71
2024/03/04 13:52:57;;;;;;;21.88;18.10;;;;;;;26.70;51.03;100993.44;7673563;23;20215;-70
2024/03/04 13:56:20;;;;;;;26.05;21.70;;;;;;;25.11;52.44;101012.31;7693393;23;20211;-71
2024/03/04 13:59:41;;;;;;;22.88;20.52;;;;;;;24.49;56.38;101006.91;7702710;23;20219;-69
2024/03/04 14:03:02;;;;;;;22.92;20.40;;;;;;;24.34;58.24;101020.16;7685818;23;20240;-70
2024/03/04 14:06:23;;;;;;;21.77;19.55;;;;;;;24.72;58.39;101017.31;7693541;23;20562;-70
2024/03/04 14:09:44;;;;;;;21.23;16.35;;;;;;;25.17;55.72;101014.16;7700297;23;20263;-69
2024/03/04 14:13:06;;;;;;;28.55;25.17;;;;;;;24.77;53.73;101014.75;7694649;23;20290;-70
2024/03/04 14:16:27;;;;;;;28.98;25.75;;;;;;;25.99;52.11;101007.25;7693453;23;20216;-68
2024/03/04 14:19:48;;;;;;;25.67;23.02;;;;;;;25.36;53.98;101007.59;7700134;23;20215;-67
2024/03/04 14:23:09;;;;;;;25.40;22.25;;;;;;;23.57;57.56;101017.56;7696309;23;20577;-72
2024/03/04 14:26:31;;;;;;;24.95;22.27;;;;;;;21.55;67.45;101010.78;7673991;23;20294;-72
2024/03/04 14:29:58;;;;;;;27.80;23.67;;;;;;;20.66;77.85;101018.00;7703267;23;20208;-69
2024/03/04 14:33:21;;;;;;;24.60;21.73;;;;;;;22.24;71.87;101015.06;7695967;23;20211;-72
2024/03/04 14:36:42;;;;;;;29.13;24.95;;;;;;;22.88;67.04;101020.00;7692466;23;20211;-70
2024/03/04 14:40:04;;;;;;;23.83;21.38;;;;;;;22.80;66.55;101017.47;7699532;23;20231;-68
2024/03/04 14:43:25;;;;;;;22.05;19.67;;;;;;;23.05;67.41;101021.25;7701132;23;20449;-69
2024/03/04 14:46:47;;;;;;;27.83;21.02;;;;;;;22.66;65.96;101018.50;7690416;23;20223;-69
2024/03/04 14:50:09;;;;;;;25.10;22.13;;;;;;;22.06;68.60;101024.94;7695362;23;20207;-68
2024/03/04 14:53:30;;;;;;;25.45;21.85;;;;;;;21.80;71.21;101024.84;7703583;23;20286;-68
2024/03/04 14:56:51;;;;;;;28.65;21.92;;;;;;;21.76;70.77;101021.66;7693264;23;20219;-71
2024/03/04 15:00:13;;;;;;;25.80;21.40;;;;;;;21.44;71.17;101022.34;7694623;23;20215;-73
2024/03/04 15:03:35;;;;;;;24.90;21.30;;;;;;;21.12;72.89;101031.22;7699628;23;20299;-69
2024/03/04 15:06:56;;;;;;;24.85;22.35;;;;;;;20.44;76.75;101038.22;7689221;23;20215;-69
2024/03/04 15:10:17;;;;;;;22.35;20.15;;;;;;;20.39;81.88;101034.38;7690685;23;20215;-70
2024/03/04 15:13:38;;;;;;;27.13;22.10;;;;;;;19.99;82.52;101040.44;7685571;23;20213;-66